Sunday, July 22, 2018, 6:25 PM EDT
Back to Local

KSWF, Newburgh / Stewart

Location: New Windsor, NY, United States Lat: 41.5
Local Time: 6:25 PM EDT (22:25 GMT) Lon: -74.1
Time Zone: US/Eastern Elev: 492 ft

Show me the last for .
Show Coded

Time T Td Feel RH Dir Speed Gust Alt SLP Vis Weather Sky Remarks
2018-07-22 17:45 79 73 84 83 140° 17 29 29.99 - 15 FEW050 BKN060 None
2018-07-22 16:45 81 73 86 78 150° 14 23 29.98 - 15 BKN025 None
2018-07-22 15:45 82 73 89 74 170° 12 - 29.97 - 15 BKN020 None
2018-07-22 14:45 81 72 85 74 170° 12 - 29.98 - 15 BKN020 None
2018-07-22 13:45 79 72 83 78 160° 8 - 29.99 - 15 BKN020 None
2018-07-22 12:45 75 72 79 88 160° 6 - 29.98 - 10 BKN015 None
2018-07-22 11:45 73 72 78 94 130° 9 - 29.96 - 3 -RA BR BKN008 None
2018-07-22 10:45 73 72 78 94 130° 12 - 29.93 - 3 -RA BR BKN008 None
2018-07-22 09:45 72 72 76 100 80° 16 - 29.90 - 2 -RA BR OVC008 None
2018-07-22 08:45 72 72 76 100 80° 16 - 29.89 - 2 -RA BR OVC008 None
2018-07-22 07:45 68 68 - 100 80° 16 - 29.86 - 2 -RA BR OVC008 None
2018-07-22 06:45 68 68 - 100 80° 16 - 29.83 - 2 -RA BR OVC006 None
2018-07-22 05:45 66 66 - 100 80° 16 - 29.83 - 2 -RA BR OVC006 None
2018-07-22 04:45 66 66 - 100 70° 14 25 29.85 - 4 -RA BR OVC006 None
2018-07-22 03:45 66 66 - 100 60° 14 - 29.86 - 5 -RA BR OVC006 None
2018-07-22 02:45 64 64 - 100 60° 16 - 29.89 - 5 -RA BR OVC006 None
2018-07-22 01:45 63 63 - 100 80° 14 - 29.92 - 5 -RA BR OVC010 None
2018-07-22 00:45 64 61 - 88 80° 14 25 29.95 - 5 -RA BR OVC020 None
2018-07-21 23:45 66 61 - 82 100° 14 - 29.97 - 5 -RA BR OVC024 None
2018-07-21 22:45 72 59 76 64 90° 16 - 29.99 - 7 OVC030 None
2018-07-21 21:45 70 55 - 60 90° 12 - 30.01 - 7 OVC030 None
2018-07-21 20:45 70 55 - 60 120° 8 - 30.02 - 7 BKN030 OVC100 None
2018-07-21 19:45 72 55 76 56 120° 8 - 30.04 - 10 SCT030 OVC100 None
2018-07-21 18:45 72 57 76 60 120° 8 - 30.04 - 10 OVC100 None

Support USWX by starting your Amazon purchase here.